Time;durP1;ratioP1;P1;durP2;ratioP2;P2;SDS_P1;SDS_P2;PMS_P1;PMS_P2;Temp;Humidity;BMP_temperature;BMP_pressure;BME280_temperature;BME280_humidity;BME280_pressure;Samples;Min_cycle;Max_cycle;Signal;HPM_P1;HPM_P2
2022/05/11 00:01:32;;;;;;;5.53;3.47;;;16.30;60.50;;;;;;5013119;28;20068;-82
2022/05/11 00:03:59;;;;;;;6.47;4.07;;;16.20;60.00;;;;;;5012711;28;20147;-84
2022/05/11 00:06:26;;;;;;;6.18;4.10;;;16.20;59.90;;;;;;5013392;28;20038;-84
2022/05/11 00:08:53;;;;;;;4.78;3.15;;;16.20;59.90;;;;;;5013746;28;20041;-83
2022/05/11 00:11:19;;;;;;;7.20;5.22;;;16.20;59.80;;;;;;5012185;28;20038;-83
2022/05/11 00:13:45;;;;;;;6.63;4.28;;;16.10;60.00;;;;;;5013765;28;20069;-83
2022/05/11 00:16:12;;;;;;;7.15;4.80;;;16.10;60.20;;;;;;5010854;28;20046;-83
2022/05/11 00:18:39;;;;;;;7.82;4.32;;;16.10;60.30;;;;;;5012261;28;20069;-81
2022/05/11 00:21:05;;;;;;;8.13;5.20;;;16.10;60.40;;;;;;5012815;28;20393;-82
2022/05/11 00:23:31;;;;;;;6.53;4.20;;;16.00;60.70;;;;;;5012984;28;20531;-82
2022/05/11 00:25:57;;;;;;;6.88;4.15;;;16.00;60.60;;;;;;5011716;28;20053;-81
2022/05/11 00:28:23;;;;;;;6.57;4.15;;;16.00;60.60;;;;;;5013902;28;20084;-82
2022/05/11 00:30:48;;;;;;;8.35;5.10;;;15.90;60.60;;;;;;5013212;28;20041;-82
2022/05/11 00:33:16;;;;;;;4.93;4.43;;;15.90;60.70;;;;;;5010357;28;20042;-81
2022/05/11 00:35:44;;;;;;;7.22;4.88;;;15.80;60.70;;;;;;5012737;28;20042;-82
2022/05/11 00:38:10;;;;;;;7.85;4.32;;;15.90;60.90;;;;;;5010516;28;20050;-82
2022/05/11 00:40:50;;;;;;;6.07;4.43;;;15.80;61.00;;;;;;5013863;28;20046;-82
2022/05/11 00:43:30;;;;;;;6.15;3.88;;;15.80;61.20;;;;;;5017146;28;20046;-82
2022/05/11 00:46:15;;;;;;;4.75;4.00;;;15.80;60.90;;;;;;5016632;28;20042;-81
2022/05/11 00:51:33;;;;;;;6.20;3.58;;;15.70;61.10;;;;;;5016836;28;20042;-81
2022/05/11 00:54:00;;;;;;;5.88;3.95;;;15.70;60.90;;;;;;5016508;28;20112;-82
2022/05/11 00:56:27;;;;;;;6.53;4.05;;;15.70;60.80;;;;;;5016088;28;20042;-82
2022/05/11 00:58:58;;;;;;;3.75;2.50;;;15.70;60.90;;;;;;5016795;28;20413;-82
2022/05/11 01:01:25;;;;;;;5.53;3.95;;;15.70;60.50;;;;;;5016579;28;20041;-82
2022/05/11 01:04:10;;;;;;;6.43;3.22;;;15.70;60.40;;;;;;5016720;28;20042;-82
2022/05/11 01:06:37;;;;;;;5.60;3.13;;;15.70;60.40;;;;;;5016007;28;20049;-82
2022/05/11 01:09:05;;;;;;;4.22;3.38;;;15.70;60.30;;;;;;5016126;28;20084;-82
2022/05/11 01:11:32;;;;;;;6.00;3.55;;;15.70;60.50;;;;;;5016444;28;20504;-82
2022/05/11 01:13:58;;;;;;;3.72;2.72;;;15.70;60.50;;;;;;5014212;28;20049;-82
2022/05/11 01:16:25;;;;;;;5.43;3.50;;;15.70;60.60;;;;;;5014800;28;20379;-82
2022/05/11 01:18:51;;;;;;;5.07;2.80;;;15.70;60.60;;;;;;5012758;28;20253;-82
2022/05/11 01:21:17;;;;;;;4.63;3.33;;;15.70;60.50;;;;;;5016976;28;20060;-82
2022/05/11 01:23:55;;;;;;;5.78;3.28;;;15.70;60.40;;;;;;5016335;28;20474;-82
2022/05/11 01:26:20;;;;;;;4.85;3.15;;;15.70;60.50;;;;;;5016294;28;20106;-82
2022/05/11 01:28:49;;;;;;;6.78;3.95;;;15.70;60.40;;;;;;5014189;28;20054;-82
2022/05/11 01:31:16;;;;;;;3.80;2.80;;;15.60;60.50;;;;;;5015458;28;20057;-82
2022/05/11 01:33:47;;;;;;;4.65;3.72;;;15.70;60.40;;;;;;5015996;28;20056;-82
2022/05/11 01:36:18;;;;;;;5.80;3.15;;;15.70;60.30;;;;;;5015934;28;20038;-82
2022/05/11 01:38:47;;;;;;;7.03;4.03;;;15.70;60.80;;;;;;5015363;28;20432;-83
2022/05/11 01:41:37;;;;;;;6.25;3.40;;;15.60;60.80;;;;;;5016064;28;20053;-82
2022/05/11 01:44:14;;;;;;;6.45;3.65;;;15.70;61.00;;;;;;5015351;28;20076;-82
2022/05/11 01:46:45;;;;;;;5.95;3.75;;;15.60;61.10;;;;;;5015328;28;20041;-83
2022/05/11 01:49:11;;;;;;;4.80;3.50;;;15.60;61.20;;;;;;5014166;28;20049;-82
2022/05/11 01:51:37;;;;;;;4.47;3.13;;;15.60;61.20;;;;;;5014573;28;20041;-82
2022/05/11 01:54:03;;;;;;;6.57;3.65;;;15.60;61.00;;;;;;5014286;28;20050;-82
2022/05/11 01:56:29;;;;;;;6.50;3.88;;;15.50;61.00;;;;;;5014905;28;20034;-83
2022/05/11 01:58:55;;;;;;;5.28;3.25;;;15.50;61.00;;;;;;5015915;28;20057;-82
2022/05/11 02:01:24;;;;;;;6.30;4.35;;;15.50;60.90;;;;;;5016044;28;20437;-82
2022/05/11 02:03:50;;;;;;;5.10;3.45;;;15.50;60.90;;;;;;5015924;28;20053;-82
2022/05/11 02:09:01;;;;;;;5.03;3.70;;;15.50;61.00;;;;;;5014791;28;20095;-82
2022/05/11 02:11:27;;;;;;;5.05;3.53;;;15.50;60.80;;;;;;5014728;28;20053;-82
2022/05/11 02:13:53;;;;;;;8.55;4.90;;;15.50;61.00;;;;;;5015121;28;20060;-82
2022/05/11 02:16:19;;;;;;;7.38;4.10;;;15.50;61.30;;;;;;5015873;28;20049;-82
2022/05/11 02:18:45;;;;;;;5.55;4.20;;;15.50;61.30;;;;;;5013713;28;20050;-83
2022/05/11 02:21:11;;;;;;;6.95;4.55;;;15.50;61.20;;;;;;5014846;28;20053;-83
2022/05/11 02:23:38;;;;;;;3.90;2.97;;;15.50;61.50;;;;;;5013586;28;20049;-83
2022/05/11 02:26:05;;;;;;;4.45;3.13;;;15.50;61.10;;;;;;5014104;28;20045;-84
2022/05/11 02:28:31;;;;;;;5.07;3.17;;;15.50;60.70;;;;;;5013228;28;20038;-84
2022/05/11 02:30:57;;;;;;;5.22;3.65;;;15.50;60.60;;;;;;5015700;28;20120;-84
2022/05/11 02:33:24;;;;;;;5.88;3.90;;;15.50;60.70;;;;;;5014685;28;20050;-84
2022/05/11 02:35:51;;;;;;;4.53;3.15;;;15.50;61.10;;;;;;5015294;28;20046;-84
2022/05/11 02:38:22;;;;;;;5.40;3.30;;;15.50;60.80;;;;;;5014621;28;20084;-85
2022/05/11 02:40:49;;;;;;;3.95;2.85;;;15.60;60.70;;;;;;5015433;28;20048;-84
2022/05/11 02:43:15;;;;;;;4.57;2.85;;;15.60;60.60;;;;;;5014189;28;20042;-83
2022/05/11 02:45:42;;;;;;;4.68;3.03;;;15.50;60.30;;;;;;5015022;28;20042;-84
2022/05/11 02:48:10;;;;;;;4.68;3.35;;;15.50;60.40;;;;;;5013700;28;20041;-84
2022/05/11 02:50:46;;;;;;;6.10;3.83;;;15.50;60.30;;;;;;5014290;28;20041;-82
2022/05/11 02:53:13;;;;;;;3.80;2.55;;;15.60;60.50;;;;;;5015048;28;20042;-82
2022/05/11 02:55:42;;;;;;;7.18;4.53;;;15.60;60.30;;;;;;5012212;28;20050;-82
2022/05/11 02:58:10;;;;;;;5.78;3.30;;;15.60;60.60;;;;;;5014941;28;20379;-83
2022/05/11 03:00:39;;;;;;;3.72;2.67;;;15.60;60.70;;;;;;5012321;28;20085;-82
2022/05/11 03:03:06;;;;;;;4.68;3.05;;;15.60;60.50;;;;;;5012932;28;20112;-82
2022/05/11 03:05:32;;;;;;;4.15;3.03;;;15.60;60.20;;;;;;5013785;28;20046;-82
2022/05/11 03:07:58;;;;;;;5.43;3.20;;;15.60;59.90;;;;;;5015126;28;20056;-82
2022/05/11 03:10:23;;;;;;;6.05;3.47;;;15.60;60.00;;;;;;5013246;28;20060;-83
2022/05/11 03:12:49;;;;;;;4.40;3.25;;;15.60;60.20;;;;;;5014559;28;20081;-83
2022/05/11 03:15:15;;;;;;;4.20;2.70;;;15.60;60.20;;;;;;5014015;28;20386;-83
2022/05/11 03:17:41;;;;;;;5.75;3.08;;;15.60;59.90;;;;;;5014294;28;20041;-83
2022/05/11 03:20:08;;;;;;;4.35;2.45;;;15.60;59.90;;;;;;5012330;28;20073;-83
2022/05/11 03:22:34;;;;;;;5.68;2.75;;;15.60;59.80;;;;;;5012588;28;20050;-83
2022/05/11 03:25:00;;;;;;;6.90;2.60;;;15.60;59.80;;;;;;5014158;28;20046;-83
2022/05/11 03:27:26;;;;;;;6.00;3.00;;;15.60;59.80;;;;;;5013988;28;20046;-82
2022/05/11 03:29:52;;;;;;;3.55;2.47;;;15.60;59.80;;;;;;5014138;28;20073;-83
2022/05/11 03:35:04;;;;;;;4.47;2.53;;;15.60;59.90;;;;;;5014162;28;20081;-83
2022/05/11 03:37:30;;;;;;;4.00;2.60;;;15.60;59.80;;;;;;5012559;28;20049;-83
2022/05/11 03:39:56;;;;;;;3.40;2.30;;;15.60;59.60;;;;;;5014119;28;20125;-84
2022/05/11 03:42:22;;;;;;;3.60;2.38;;;15.60;59.50;;;;;;5013202;28;20064;-84
2022/05/11 03:44:48;;;;;;;8.00;3.10;;;15.60;59.40;;;;;;5013630;28;20049;-84
2022/05/11 03:47:14;;;;;;;4.82;2.47;;;15.60;59.50;;;;;;5013669;28;20085;-83
2022/05/11 03:49:39;;;;;;;4.63;2.08;;;15.60;59.60;;;;;;5013658;28;20050;-84
2022/05/11 03:52:06;;;;;;;5.75;2.20;;;15.60;59.60;;;;;;5013587;28;20125;-84
2022/05/11 03:54:32;;;;;;;3.78;2.08;;;15.60;59.40;;;;;;5012055;28;20053;-84
2022/05/11 03:56:57;;;;;;;5.95;3.00;;;15.60;59.20;;;;;;5013377;28;20076;-84
2022/05/11 03:59:23;;;;;;;5.53;2.50;;;15.60;59.50;;;;;;5013805;28;20049;-83
2022/05/11 04:01:49;;;;;;;4.15;2.25;;;15.70;59.30;;;;;;5012180;28;20147;-84
2022/05/11 04:04:14;;;;;;;5.78;1.98;;;15.60;59.20;;;;;;5012414;28;20049;-83
2022/05/11 04:06:40;;;;;;;4.68;2.55;;;15.70;59.20;;;;;;5013012;28;20092;-83
2022/05/11 04:09:05;;;;;;;4.57;2.45;;;15.70;59.20;;;;;;5013596;28;20485;-84
2022/05/11 04:11:33;;;;;;;4.68;2.22;;;15.70;59.60;;;;;;5012771;28;20128;-84
2022/05/11 04:13:59;;;;;;;4.25;2.45;;;15.60;59.50;;;;;;5012237;28;20057;-83
2022/05/11 04:16:24;;;;;;;5.78;2.78;;;15.70;59.40;;;;;;5016263;28;20057;-84
2022/05/11 04:18:50;;;;;;;4.90;2.88;;;15.60;59.60;;;;;;5017490;28;20066;-84
2022/05/11 04:21:16;;;;;;;7.05;3.70;;;15.70;59.60;;;;;;5016240;28;20505;-84
2022/05/11 04:23:42;;;;;;;4.20;2.38;;;15.70;60.00;;;;;;5017636;28;20046;-84
2022/05/11 04:26:12;;;;;;;5.63;2.83;;;15.70;60.00;;;;;;5017323;28;20045;-84
2022/05/11 04:28:39;;;;;;;6.65;2.88;;;15.70;60.10;;;;;;5016483;28;20050;-84
2022/05/11 04:31:08;;;;;;;7.93;3.45;;;15.70;60.40;;;;;;5017384;28;20100;-84
2022/05/11 04:33:34;;;;;;;7.05;3.55;;;15.70;61.00;;;;;;5015769;28;20561;-84
2022/05/11 04:36:01;;;;;;;4.65;3.15;;;15.70;61.10;;;;;;5016821;28;20097;-84
2022/05/11 04:38:27;;;;;;;6.65;4.22;;;15.70;61.20;;;;;;5017366;28;20137;-84
2022/05/11 04:40:53;;;;;;;7.30;3.60;;;15.60;61.40;;;;;;5016878;28;20504;-84
2022/05/11 04:43:18;;;;;;;5.68;3.17;;;15.60;61.80;;;;;;5015931;28;20086;-84
2022/05/11 04:45:45;;;;;;;4.82;2.80;;;15.70;61.90;;;;;;5017093;28;20042;-83
2022/05/11 04:48:12;;;;;;;6.05;3.13;;;15.70;61.80;;;;;;5016437;28;20041;-84
2022/05/11 04:50:41;;;;;;;7.15;3.92;;;15.60;62.00;;;;;;5015141;28;20397;-83
2022/05/11 04:53:08;;;;;;;7.20;4.38;;;15.60;62.10;;;;;;5016762;28;20117;-84
2022/05/11 04:55:34;;;;;;;4.80;2.55;;;15.60;62.30;;;;;;5015835;28;20053;-84
2022/05/11 04:58:00;;;;;;;6.22;3.35;;;15.60;62.10;;;;;;5016412;28;20048;-83
2022/05/11 05:00:26;;;;;;;5.65;3.03;;;15.60;62.20;;;;;;5016608;28;20045;-83
2022/05/11 05:02:52;;;;;;;3.95;2.47;;;15.60;62.20;;;;;;5016559;28;20394;-83
2022/05/11 05:05:18;;;;;;;5.28;3.05;;;15.60;62.20;;;;;;5016144;28;20045;-83
2022/05/11 05:07:44;;;;;;;6.80;3.45;;;15.60;62.20;;;;;;5014674;28;20052;-83
2022/05/11 05:10:13;;;;;;;7.35;3.35;;;15.60;62.40;;;;;;5015798;28;20132;-83
2022/05/11 05:12:40;;;;;;;5.15;3.13;;;15.60;62.40;;;;;;5016146;28;20088;-82
2022/05/11 05:15:07;;;;;;;5.18;3.58;;;15.70;62.50;;;;;;5015622;28;20058;-83
2022/05/11 05:17:33;;;;;;;7.75;3.65;;;15.70;62.30;;;;;;5016627;28;20077;-83
2022/05/11 05:19:58;;;;;;;8.73;4.03;;;15.70;62.50;;;;;;5015658;28;20108;-83
2022/05/11 05:22:24;;;;;;;6.82;4.00;;;15.60;62.50;;;;;;5016711;28;20049;-83
2022/05/11 05:24:50;;;;;;;9.18;3.55;;;15.70;62.70;;;;;;5014841;28;20108;-82
2022/05/11 05:27:18;;;;;;;9.70;4.47;;;15.70;62.80;;;;;;5015581;28;20053;-83
2022/05/11 05:32:34;;;;;;;6.60;4.28;;;15.70;63.30;;;;;;5016376;28;20130;-83
2022/05/11 05:35:00;;;;;;;6.07;4.10;;;15.70;63.20;;;;;;5015135;28;20104;-83
2022/05/11 05:37:26;;;;;;;7.85;4.32;;;15.70;63.00;;;;;;5016449;28;20125;-83
2022/05/11 05:39:52;;;;;;;8.02;4.20;;;15.70;63.20;;;;;;5016183;28;20470;-83
2022/05/11 05:42:19;;;;;;;6.25;4.15;;;15.80;63.30;;;;;;5016247;28;20038;-83
2022/05/11 05:44:45;;;;;;;5.80;3.72;;;15.80;63.40;;;;;;5014793;28;20053;-84
2022/05/11 05:47:12;;;;;;;9.55;4.13;;;15.80;63.10;;;;;;5015014;28;20038;-83
2022/05/11 05:49:38;;;;;;;6.47;4.10;;;15.80;63.00;;;;;;5016506;28;20041;-83
2022/05/11 05:52:04;;;;;;;7.18;3.80;;;15.80;62.90;;;;;;5014362;28;20214;-84
2022/05/11 05:54:33;;;;;;;8.10;3.80;;;15.80;62.70;;;;;;5016298;28;20048;-84
2022/05/11 05:56:59;;;;;;;6.90;3.97;;;15.90;62.50;;;;;;5016074;28;20042;-84
2022/05/11 05:59:25;;;;;;;9.25;3.17;;;15.90;62.40;;;;;;5016301;28;20057;-84
2022/05/11 06:01:51;;;;;;;7.60;3.85;;;15.90;62.10;;;;;;5015888;28;20041;-84
2022/05/11 06:04:17;;;;;;;8.52;4.00;;;15.90;61.90;;;;;;5015982;28;20050;-83
2022/05/11 06:06:43;;;;;;;6.13;3.35;;;16.00;62.00;;;;;;5016367;28;20104;-83
2022/05/11 06:09:09;;;;;;;6.60;3.33;;;16.00;62.00;;;;;;5007617;28;20054;-84
2022/05/11 06:11:36;;;;;;;7.78;3.70;;;16.00;61.50;;;;;;4996830;28;20405;-91
2022/05/11 06:14:03;;;;;;;6.57;3.50;;;16.00;61.20;;;;;;5016632;28;20081;-84
2022/05/11 06:16:31;;;;;;;6.72;3.30;;;16.00;61.10;;;;;;5016154;28;20046;-83
2022/05/11 06:18:57;;;;;;;5.63;2.97;;;16.00;61.00;;;;;;5015192;28;20062;-84
2022/05/11 06:21:22;;;;;;;9.23;3.67;;;16.10;60.60;;;;;;4998077;28;20064;-84
2022/05/11 06:23:48;;;;;;;5.40;2.78;;;16.10;60.40;;;;;;5016095;28;20163;-83
2022/05/11 06:26:16;;;;;;;6.10;2.85;;;16.10;60.10;;;;;;5015159;28;20053;-83
2022/05/11 06:28:42;;;;;;;7.60;3.00;;;16.20;60.10;;;;;;5015725;28;20049;-83
2022/05/11 06:31:09;;;;;;;10.05;3.60;;;16.20;59.80;;;;;;5016447;28;20049;-84
2022/05/11 06:33:34;;;;;;;5.28;2.95;;;16.20;59.70;;;;;;5016592;28;20046;-87
2022/05/11 06:36:02;;;;;;;7.93;2.92;;;16.20;59.60;;;;;;5016560;28;20547;-83
2022/05/11 06:38:28;;;;;;;9.95;3.10;;;16.20;59.40;;;;;;5021470;28;20081;-86
2022/05/11 06:40:54;;;;;;;5.43;2.72;;;16.30;59.30;;;;;;5018132;28;20080;-83
2022/05/11 06:43:19;;;;;;;9.32;2.67;;;16.30;59.20;;;;;;5010196;28;20429;-84
2022/05/11 06:45:45;;;;;;;8.88;2.67;;;16.30;59.00;;;;;;5002774;28;20042;-87
2022/05/11 06:48:12;;;;;;;9.15;2.83;;;16.40;58.90;;;;;;5020806;28;20068;-84
2022/05/11 06:50:38;;;;;;;6.90;2.85;;;16.40;58.70;;;;;;5019433;28;20053;-83
2022/05/11 06:53:11;;;;;;;5.85;2.92;;;16.50;58.70;;;;;;5020489;28;20038;-86
2022/05/11 07:01:08;;;;;;;9.25;3.08;;;16.50;58.50;;;;;;5027253;28;20054;-83
2022/05/11 07:03:34;;;;;;;7.10;3.13;;;16.60;58.40;;;;;;5027080;28;20053;-85
2022/05/11 07:06:00;;;;;;;5.90;3.33;;;16.60;58.40;;;;;;5026742;28;20129;-84
2022/05/11 07:08:42;;;;;;;7.00;2.50;;;16.70;58.20;;;;;;5018439;28;20046;-84
2022/05/11 07:13:56;;;;;;;6.30;2.10;;;16.80;58.20;;;;;;5021476;28;20054;-87
2022/05/11 07:16:23;;;;;;;7.95;2.85;;;16.90;58.00;;;;;;5016378;28;20056;-87
2022/05/11 07:18:49;;;;;;;7.30;2.45;;;17.00;57.80;;;;;;5015178;28;20057;-85
2022/05/11 07:21:14;;;;;;;8.23;2.10;;;17.10;57.80;;;;;;5015132;28;20041;-88
2022/05/11 07:23:40;;;;;;;6.13;2.38;;;17.10;57.40;;;;;;5014943;28;20065;-87
2022/05/11 07:26:06;;;;;;;7.60;2.67;;;17.30;57.10;;;;;;5013417;28;20073;-89
2022/05/11 07:28:31;;;;;;;9.80;2.40;;;17.40;56.90;;;;;;5014463;28;20049;-85
2022/05/11 07:30:57;;;;;;;4.97;2.30;;;17.50;56.50;;;;;;5014759;28;20033;-86
2022/05/11 07:33:22;;;;;;;8.43;2.40;;;17.50;56.10;;;;;;5014653;28;20527;-85
2022/05/11 07:35:48;;;;;;;8.00;2.22;;;17.60;55.90;;;;;;5014815;28;20045;-85
2022/05/11 07:38:17;;;;;;;12.35;2.45;;;17.70;55.50;;;;;;5013476;28;20062;-84
2022/05/11 07:40:44;;;;;;;8.38;2.65;;;17.80;55.30;;;;;;5014331;28;20078;-84
2022/05/11 07:43:11;;;;;;;5.25;1.77;;;17.90;55.20;;;;;;5014226;28;20045;-86
2022/05/11 07:45:38;;;;;;;7.07;2.10;;;17.90;55.00;;;;;;5014837;28;20527;-86
2022/05/11 07:48:04;;;;;;;6.15;1.92;;;18.00;54.80;;;;;;5013210;28;20073;-84
2022/05/11 07:50:31;;;;;;;7.22;2.22;;;18.00;54.80;;;;;;5002218;28;20046;-85
2022/05/11 07:52:56;;;;;;;6.13;2.20;;;18.10;54.70;;;;;;5014303;28;20042;-87
2022/05/11 07:55:25;;;;;;;8.60;2.40;;;18.10;54.70;;;;;;5013702;28;20080;-84
2022/05/11 08:00:37;;;;;;;8.73;2.55;;;18.40;54.90;;;;;;5000315;28;20062;-87
2022/05/11 08:03:03;;;;;;;11.80;2.30;;;18.60;54.60;;;;;;5012765;28;20058;-84
2022/05/11 08:05:30;;;;;;;8.95;1.90;;;18.70;54.30;;;;;;5012969;28;20056;-85
2022/05/11 08:07:58;;;;;;;9.18;1.77;;;18.80;54.00;;;;;;5013185;28;20053;-88
2022/05/11 08:10:29;;;;;;;10.18;2.47;;;18.90;54.00;;;;;;5014286;28;20038;-84
2022/05/11 08:12:55;;;;;;;6.68;1.67;;;19.00;53.60;;;;;;5004742;28;20046;-84
2022/05/11 08:15:23;;;;;;;10.32;2.67;;;19.10;53.40;;;;;;5012704;28;20049;-86
2022/05/11 08:17:50;;;;;;;8.98;2.25;;;19.20;52.70;;;;;;5013833;28;20072;-84
2022/05/11 08:20:28;;;;;;;8.07;2.63;;;19.30;52.50;;;;;;5012994;28;20042;-84
2022/05/11 08:22:55;;;;;;;10.85;2.28;;;19.40;52.40;;;;;;5013363;28;20131;-82
2022/05/11 08:25:24;;;;;;;10.05;2.35;;;19.40;52.30;;;;;;5014024;28;20172;-85
2022/05/11 08:27:51;;;;;;;9.95;2.17;;;19.50;52.20;;;;;;5014420;28;20049;-83
2022/05/11 08:33:24;;;;;;;6.28;1.70;;;19.50;52.10;;;;;;5013425;28;20478;-81
2022/05/11 08:35:51;;;;;;;;;;;19.60;52.20;;;;;;5012568;28;20046;-83
2022/05/11 08:38:19;;;;;;;7.18;1.90;;;19.60;52.10;;;;;;5012550;28;19922;-81
2022/05/11 08:41:16;;;;;;;6.65;2.13;;;19.60;52.20;;;;;;5013903;28;20054;-82
2022/05/11 08:43:43;;;;;;;7.82;2.00;;;19.70;51.80;;;;;;5013242;28;20478;-84
2022/05/11 08:46:38;;;;;;;8.27;2.30;;;19.70;51.80;;;;;;5013850;28;20046;-83
2022/05/11 08:49:31;;;;;;;10.35;2.22;;;19.70;51.70;;;;;;5012439;28;20045;-83
2022/05/11 08:52:04;;;;;;;8.70;2.15;;;19.80;51.90;;;;;;4994177;28;20050;-85
2022/05/11 08:54:47;;;;;;;10.63;2.70;;;19.90;52.00;;;;;;5000423;28;20038;-85
2022/05/11 08:57:17;;;;;;;8.60;2.10;;;20.00;52.10;;;;;;5015009;28;20050;-84
2022/05/11 08:59:44;;;;;;;6.93;2.38;;;20.20;51.90;;;;;;5014295;28;20077;-86
2022/05/11 09:02:20;;;;;;;6.97;2.40;;;20.30;51.80;;;;;;5017787;28;20042;-87
2022/05/11 09:04:47;;;;;;;11.80;2.42;;;20.50;51.20;;;;;;5017990;28;20046;-87
2022/05/11 09:07:13;;;;;;;12.35;2.50;;;20.70;51.80;;;;;;5018243;28;20069;-84
2022/05/11 09:09:39;;;;;;;12.40;2.92;;;20.90;51.30;;;;;;5020533;28;20042;-86
2022/05/11 09:12:07;;;;;;;8.45;2.40;;;21.00;50.60;;;;;;5022816;28;20061;-87
2022/05/11 09:14:44;;;;;;;9.00;2.95;;;21.20;50.40;;;;;;5022266;28;20049;-87
2022/05/11 09:17:29;;;;;;;9.35;2.10;;;21.50;49.70;;;;;;5017767;28;20109;-85
2022/05/11 09:20:04;;;;;;;9.98;2.75;;;21.70;49.30;;;;;;5015451;28;20046;-83
2022/05/11 09:22:33;;;;;;;8.63;2.42;;;21.90;48.90;;;;;;5017509;28;20042;-85
2022/05/11 09:25:04;;;;;;;10.38;2.80;;;22.10;48.60;;;;;;5017821;28;20045;-85
2022/05/11 09:27:33;;;;;;;9.98;2.67;;;22.30;48.20;;;;;;5017794;28;20116;-83
2022/05/11 09:30:21;;;;;;;8.98;2.35;;;22.50;48.10;;;;;;5001300;28;20049;-84
2022/05/11 09:32:47;;;;;;;6.82;2.13;;;22.70;47.70;;;;;;5017083;28;20038;-83
2022/05/11 09:35:21;;;;;;;8.60;2.55;;;22.80;47.20;;;;;;5016834;28;20045;-83
2022/05/11 09:38:03;;;;;;;7.03;1.95;;;23.00;46.20;;;;;;5016777;28;20440;-84
2022/05/11 09:40:31;;;;;;;11.48;2.60;;;23.20;45.60;;;;;;5015365;28;20042;-88
2022/05/11 09:43:02;;;;;;;8.60;2.03;;;23.30;44.90;;;;;;5017395;28;20050;-88
2022/05/11 09:45:48;;;;;;;7.82;1.73;;;23.40;43.10;;;;;;5016313;28;20080;-88
2022/05/11 09:48:24;;;;;;;7.95;1.67;;;23.50;43.70;;;;;;5016552;28;20116;-86
2022/05/11 09:50:54;;;;;;;6.32;1.65;;;23.60;43.60;;;;;;5016204;28;20036;-87
2022/05/11 09:53:19;;;;;;;7.05;1.65;;;23.70;42.80;;;;;;4999337;28;20077;-89
2022/05/11 09:55:45;;;;;;;6.68;1.88;;;23.80;42.00;;;;;;5015624;28;20077;-87
2022/05/11 09:58:10;;;;;;;7.60;1.63;;;23.90;41.30;;;;;;5014937;28;20038;-85
2022/05/11 10:00:42;;;;;;;6.70;1.60;;;24.00;41.50;;;;;;5014767;28;20077;-86
2022/05/11 10:03:16;;;;;;;5.43;1.60;;;24.00;41.30;;;;;;5015875;28;20073;-85
2022/05/11 10:05:44;;;;;;;;;;;24.10;41.20;;;;;;5015902;28;20046;-87
2022/05/11 10:08:19;;;;;;;5.80;1.63;;;24.10;42.10;;;;;;5015995;28;20007;-88
2022/05/11 10:10:50;;;;;;;7.25;1.98;;;24.20;41.30;;;;;;5016087;28;20042;-85
2022/05/11 10:13:26;;;;;;;8.57;1.77;;;24.30;41.00;;;;;;5015115;28;20474;-86
2022/05/11 10:21:56;;;;;;;;;;;24.40;40.20;;;;;;5013709;28;20441;-89
2022/05/11 10:24:37;;;;;;;5.80;1.70;;;24.40;41.10;;;;;;4996922;28;19968;-89
2022/05/11 10:27:27;;;;;;;7.60;1.90;;;24.40;40.80;;;;;;5011641;28;20140;-85
2022/05/11 10:30:05;;;;;;;8.77;2.35;;;24.40;41.20;;;;;;5015723;28;20056;-86
2022/05/11 10:32:36;;;;;;;6.88;2.08;;;24.50;41.10;;;;;;5014346;28;20489;-91
2022/05/11 10:35:19;;;;;;;7.20;1.70;;;24.60;41.10;;;;;;5015442;28;20135;-91
2022/05/11 10:37:44;;;;;;;7.93;1.92;;;24.60;40.70;;;;;;5014770;28;20038;-85
2022/05/11 10:40:31;;;;;;;8.48;1.92;;;24.60;40.40;;;;;;5014897;28;20073;-85
2022/05/11 10:43:21;;;;;;;7.43;2.28;;;24.70;40.30;;;;;;5014809;28;20049;-90
2022/05/11 10:45:59;;;;;;;4.88;1.88;;;24.70;40.30;;;;;;5014517;28;20076;-88
2022/05/11 10:49:02;;;;;;;6.78;2.00;;;24.70;40.30;;;;;;5015109;28;20132;-87
2022/05/11 10:51:37;;;;;;;5.90;1.40;;;24.80;40.20;;;;;;5013910;28;20102;-88
2022/05/11 10:54:14;;;;;;;7.28;1.80;;;24.80;40.10;;;;;;4997485;28;20045;-91
2022/05/11 10:57:05;;;;;;;7.53;1.90;;;24.80;40.00;;;;;;5012096;28;20141;-85
2022/05/11 10:59:52;;;;;;;8.60;2.20;;;24.80;39.70;;;;;;5015475;28;20108;-91
2022/05/11 11:02:45;;;;;;;6.55;1.70;;;24.80;40.20;;;;;;4987757;28;20422;-93
2022/05/11 11:05:25;;;;;;;6.65;1.55;;;24.70;39.90;;;;;;4995679;28;20371;-85
2022/05/11 11:08:25;;;;;;;8.27;1.67;;;24.70;39.70;;;;;;4978207;28;20046;-90
2022/05/11 11:11:03;;;;;;;7.85;1.70;;;24.70;39.60;;;;;;4976744;28;20051;-89
2022/05/11 11:14:00;;;;;;;5.35;1.63;;;24.70;39.50;;;;;;4994381;28;20410;-87
2022/05/11 11:16:38;;;;;;;9.75;2.40;;;24.70;39.50;;;;;;4996234;28;20038;-86
2022/05/11 11:19:09;;;;;;;6.68;1.63;;;24.70;40.10;;;;;;4978870;28;20065;-86
2022/05/11 11:21:39;;;;;;;7.40;1.58;;;24.70;39.70;;;;;;4978387;28;20054;-89
2022/05/11 11:24:27;;;;;;;5.80;1.70;;;24.80;39.70;;;;;;4996331;28;20098;-92
2022/05/11 11:26:57;;;;;;;9.93;2.55;;;24.80;40.10;;;;;;4980199;28;20054;-86
2022/05/11 11:29:31;;;;;;;6.68;2.35;;;24.80;39.90;;;;;;4979750;28;20050;-85
2022/05/11 11:32:00;;;;;;;6.63;1.90;;;24.80;39.70;;;;;;4996393;28;20522;-89
2022/05/11 11:34:28;;;;;;;5.63;1.92;;;24.80;39.30;;;;;;4994959;28;20378;-85
2022/05/11 11:36:55;;;;;;;6.18;1.95;;;24.80;39.40;;;;;;4994919;28;20057;-87
2022/05/11 11:39:52;;;;;;;7.85;2.20;;;24.90;40.00;;;;;;4995512;28;20057;-88
2022/05/11 11:42:45;;;;;;;7.18;2.08;;;24.90;40.30;;;;;;4978113;28;20082;-86
2022/05/11 11:45:31;;;;;;;8.30;2.28;;;24.90;40.10;;;;;;4997757;28;20476;-87
2022/05/11 11:48:19;;;;;;;8.70;2.28;;;24.90;40.20;;;;;;4979300;28;20132;-94
2022/05/11 11:50:55;;;;;;;7.50;2.20;;;25.00;39.90;;;;;;4931849;29;20075;-92
2022/05/11 11:53:40;;;;;;;7.60;1.98;;;25.00;39.80;;;;;;4916653;29;20107;-86
2022/05/11 11:56:23;;;;;;;8.55;1.90;;;25.00;40.20;;;;;;4917447;29;20503;-90
2022/05/11 11:59:07;;;;;;;7.45;2.30;;;25.10;40.00;;;;;;4917595;29;20539;-89
2022/05/11 12:01:39;;;;;;;10.38;2.72;;;25.10;40.00;;;;;;4934256;28;20047;-89
2022/05/11 12:04:24;;;;;;;9.82;2.45;;;25.10;40.00;;;;;;4935551;29;20044;-86
2022/05/11 12:15:30;;;;;;;9.15;2.35;;;25.10;39.20;;;;;;4936337;29;20098;-87
2022/05/11 12:17:56;;;;;;;9.18;2.65;;;25.10;39.70;;;;;;4938462;29;20071;-91
2022/05/11 12:20:22;;;;;;;8.57;2.10;;;25.10;39.40;;;;;;4936167;29;20416;-86
2022/05/11 12:22:50;;;;;;;10.00;2.72;;;25.10;39.60;;;;;;4937129;29;20055;-86
2022/05/11 12:25:16;;;;;;;7.55;2.25;;;25.10;39.60;;;;;;4937037;29;20066;-92
2022/05/11 12:27:42;;;;;;;7.22;2.30;;;25.10;39.80;;;;;;4961802;28;20055;-89
2022/05/11 12:30:22;;;;;;;9.82;2.22;;;25.10;39.70;;;;;;4968591;28;20061;-89
2022/05/11 12:33:05;;;;;;;8.48;2.83;;;25.10;39.70;;;;;;4996091;28;20053;-86
2022/05/11 12:35:34;;;;;;;12.52;2.55;;;25.10;39.50;;;;;;4996167;28;20042;-89
2022/05/11 12:38:09;;;;;;;10.18;2.30;;;25.10;39.30;;;;;;4998438;28;20038;-87
2022/05/11 12:40:40;;;;;;;10.20;3.13;;;25.10;39.80;;;;;;4999331;28;20406;-84
2022/05/11 12:43:22;;;;;;;10.63;2.70;;;25.10;39.30;;;;;;4980728;28;20410;-86
2022/05/11 12:45:50;;;;;;;9.95;2.83;;;25.00;39.10;;;;;;4976001;28;20134;-85
2022/05/11 12:48:22;;;;;;;9.40;1.95;;;25.00;39.60;;;;;;5000716;28;20049;-92
2022/05/11 12:51:12;;;;;;;10.27;2.50;;;24.90;39.40;;;;;;4986415;28;20055;-86
2022/05/11 12:54:00;;;;;;;8.73;2.38;;;24.90;38.90;;;;;;5004274;28;20050;-82
2022/05/11 12:56:35;;;;;;;8.70;2.67;;;24.80;39.10;;;;;;5002457;28;20030;-88
2022/05/11 12:59:16;;;;;;;10.23;2.35;;;24.80;39.20;;;;;;4998708;28;20105;-90
2022/05/11 13:01:42;;;;;;;14.23;2.88;;;24.70;39.50;;;;;;5009243;28;20413;-83
2022/05/11 13:04:23;;;;;;;8.52;2.10;;;24.70;39.50;;;;;;5016535;28;20050;-88
2022/05/11 13:06:59;;;;;;;8.82;2.25;;;24.70;39.60;;;;;;5017173;28;20033;-86
2022/05/11 13:09:40;;;;;;;10.27;2.03;;;24.60;39.70;;;;;;4997244;28;20074;-84
2022/05/11 13:12:10;;;;;;;12.70;2.67;;;24.60;39.00;;;;;;5005677;28;20072;-84
2022/05/11 13:14:43;;;;;;;6.13;1.65;;;24.60;39.10;;;;;;5018333;28;20436;-86
2022/05/11 13:17:24;;;;;;;9.50;2.60;;;24.60;39.20;;;;;;5019498;28;20125;-86
2022/05/11 13:19:58;;;;;;;8.90;2.25;;;24.60;39.60;;;;;;5018668;28;20089;-86
2022/05/11 13:22:25;;;;;;;10.25;2.40;;;24.60;39.60;;;;;;5011767;28;20049;-89
2022/05/11 13:24:55;;;;;;;10.27;2.72;;;24.50;39.90;;;;;;5017931;28;20060;-89
2022/05/11 13:27:43;;;;;;;8.77;2.13;;;24.50;39.90;;;;;;5020534;28;20799;-85
2022/05/11 13:30:27;;;;;;;9.65;2.20;;;24.50;39.90;;;;;;5020698;28;20117;-90
2022/05/11 13:32:55;;;;;;;8.32;2.33;;;24.50;39.90;;;;;;5018552;28;20125;-86
2022/05/11 13:35:29;;;;;;;7.47;2.70;;;24.50;39.70;;;;;;5016244;28;20058;-85
2022/05/11 13:38:00;;;;;;;11.35;2.70;;;24.50;40.00;;;;;;5016408;28;20501;-87
2022/05/11 13:40:48;;;;;;;9.57;2.38;;;24.50;39.60;;;;;;5018379;28;20093;-85
2022/05/11 13:43:24;;;;;;;10.45;2.53;;;24.40;39.50;;;;;;5017408;28;20077;-85